sensor_id;sensor_type;location;lat;lon;timestamp;pressure;altitude;pressure_sealevel;temperature;humidity
9343;BME280;4710;51.382;7.244;2022-07-29T00:02:14;99464.38;;;32.20;30.08
9343;BME280;4710;51.382;7.244;2022-07-29T00:04:53;99460.27;;;31.96;30.22
9343;BME280;4710;51.382;7.244;2022-07-29T00:07:30;99460.17;;;32.00;30.09
9343;BME280;4710;51.382;7.244;2022-07-29T00:10:08;99463.73;;;31.98;30.23
9343;BME280;4710;51.382;7.244;2022-07-29T00:12:52;99464.71;;;31.84;30.30
9343;BME280;4710;51.382;7.244;2022-07-29T00:15:37;99454.13;;;31.71;30.60
9343;BME280;4710;51.382;7.244;2022-07-29T00:18:22;99454.52;;;31.69;30.69
9343;BME280;4710;51.382;7.244;2022-07-29T00:21:08;99447.69;;;31.74;30.90
9343;BME280;4710;51.382;7.244;2022-07-29T00:23:53;99440.31;;;32.08;30.42
9343;BME280;4710;51.382;7.244;2022-07-29T00:26:30;99439.03;;;32.34;30.23
9343;BME280;4710;51.382;7.244;2022-07-29T00:29:12;99435.30;;;32.16;30.30
9343;BME280;4710;51.382;7.244;2022-07-29T00:31:52;99434.20;;;32.33;30.07
9343;BME280;4710;51.382;7.244;2022-07-29T00:34:29;99428.53;;;32.13;30.26
9343;BME280;4710;51.382;7.244;2022-07-29T00:37:12;99429.09;;;32.15;30.40
9343;BME280;4710;51.382;7.244;2022-07-29T00:39:49;99424.28;;;31.69;31.29
9343;BME280;4710;51.382;7.244;2022-07-29T00:42:26;99424.74;;;31.90;31.01
9343;BME280;4710;51.382;7.244;2022-07-29T00:45:07;99408.64;;;31.69;31.33
9343;BME280;4710;51.382;7.244;2022-07-29T00:47:44;99414.94;;;31.57;31.38
9343;BME280;4710;51.382;7.244;2022-07-29T00:50:25;99411.31;;;31.51;31.58
9343;BME280;4710;51.382;7.244;2022-07-29T00:53:06;99407.65;;;31.56;31.55
9343;BME280;4710;51.382;7.244;2022-07-29T00:55:49;99403.38;;;31.97;31.09
9343;BME280;4710;51.382;7.244;2022-07-29T00:58:26;99402.88;;;32.18;30.82
9343;BME280;4710;51.382;7.244;2022-07-29T01:01:07;99400.61;;;32.51;30.42
9343;BME280;4710;51.382;7.244;2022-07-29T01:03:45;99403.27;;;32.60;30.18
9343;BME280;4710;51.382;7.244;2022-07-29T01:06:31;99389.72;;;32.48;30.45
9343;BME280;4710;51.382;7.244;2022-07-29T01:09:10;99385.88;;;31.76;31.45
9343;BME280;4710;51.382;7.244;2022-07-29T01:11:47;99379.14;;;31.76;31.64
9343;BME280;4710;51.382;7.244;2022-07-29T01:14:28;99378.63;;;31.52;31.89
9343;BME280;4710;51.382;7.244;2022-07-29T01:20:24;99380.03;;;31.65;31.65
9343;BME280;4710;51.382;7.244;2022-07-29T01:23:25;99382.21;;;31.66;31.52
9343;BME280;4710;51.382;7.244;2022-07-29T01:26:34;99373.97;;;31.66;31.69
9343;BME280;4710;51.382;7.244;2022-07-29T01:29:17;99370.61;;;31.75;31.53
9343;BME280;4710;51.382;7.244;2022-07-29T01:32:00;99370.63;;;31.64;31.56
9343;BME280;4710;51.382;7.244;2022-07-29T01:34:48;99373.71;;;31.86;31.49
9343;BME280;4710;51.382;7.244;2022-07-29T01:37:39;99365.83;;;31.97;31.49
9343;BME280;4710;51.382;7.244;2022-07-29T01:40:20;99374.14;;;32.20;31.08
9343;BME280;4710;51.382;7.244;2022-07-29T01:43:06;99374.11;;;32.02;31.28
9343;BME280;4710;51.382;7.244;2022-07-29T01:45:47;99372.23;;;31.89;31.43
9343;BME280;4710;51.382;7.244;2022-07-29T01:48:42;99363.22;;;31.98;31.25
9343;BME280;4710;51.382;7.244;2022-07-29T01:51:31;99367.84;;;32.24;30.90
9343;BME280;4710;51.382;7.244;2022-07-29T01:54:14;99365.08;;;32.06;31.47
9343;BME280;4710;51.382;7.244;2022-07-29T01:56:53;99372.70;;;31.49;32.65
9343;BME280;4710;51.382;7.244;2022-07-29T01:59:34;99363.45;;;32.08;31.69
9343;BME280;4710;51.382;7.244;2022-07-29T02:02:15;99357.14;;;32.30;31.19
9343;BME280;4710;51.382;7.244;2022-07-29T02:04:55;99360.00;;;32.50;30.88
9343;BME280;4710;51.382;7.244;2022-07-29T02:07:39;99351.36;;;32.50;30.70
9343;BME280;4710;51.382;7.244;2022-07-29T02:10:20;99346.66;;;32.22;30.91
9343;BME280;4710;51.382;7.244;2022-07-29T02:13:03;99347.11;;;32.61;30.48
9343;BME280;4710;51.382;7.244;2022-07-29T02:15:40;99332.27;;;32.85;30.02
9343;BME280;4710;51.382;7.244;2022-07-29T02:18:20;99333.22;;;32.33;30.67
9343;BME280;4710;51.382;7.244;2022-07-29T02:21:09;99324.34;;;32.47;30.42
9343;BME280;4710;51.382;7.244;2022-07-29T02:23:51;99319.95;;;32.43;30.59
9343;BME280;4710;51.382;7.244;2022-07-29T02:26:30;99318.86;;;32.49;30.63
9343;BME280;4710;51.382;7.244;2022-07-29T02:29:11;99331.73;;;32.34;30.92
9343;BME280;4710;51.382;7.244;2022-07-29T02:31:52;99335.14;;;31.91;31.54
9343;BME280;4710;51.382;7.244;2022-07-29T02:34:32;99344.94;;;32.32;30.99
9343;BME280;4710;51.382;7.244;2022-07-29T02:37:13;99334.56;;;32.49;30.86
9343;BME280;4710;51.382;7.244;2022-07-29T02:39:53;99337.89;;;31.91;31.31
9343;BME280;4710;51.382;7.244;2022-07-29T02:42:41;99333.84;;;32.17;31.23
9343;BME280;4710;51.382;7.244;2022-07-29T02:45:26;99328.13;;;32.59;30.62
9343;BME280;4710;51.382;7.244;2022-07-29T02:48:09;99338.56;;;32.55;30.76
9343;BME280;4710;51.382;7.244;2022-07-29T02:50:50;99345.52;;;32.44;30.93
9343;BME280;4710;51.382;7.244;2022-07-29T02:53:36;99337.22;;;32.62;30.46
9343;BME280;4710;51.382;7.244;2022-07-29T02:56:16;99333.52;;;32.62;30.48
9343;BME280;4710;51.382;7.244;2022-07-29T02:58:58;99331.01;;;32.56;30.47
9343;BME280;4710;51.382;7.244;2022-07-29T03:01:38;99332.22;;;32.47;30.54
9343;BME280;4710;51.382;7.244;2022-07-29T03:04:24;99325.98;;;32.17;31.02
9343;BME280;4710;51.382;7.244;2022-07-29T03:07:06;99323.16;;;32.54;30.87
9343;BME280;4710;51.382;7.244;2022-07-29T03:09:47;99325.86;;;32.69;30.69
9343;BME280;4710;51.382;7.244;2022-07-29T03:12:31;99324.69;;;32.89;30.28
9343;BME280;4710;51.382;7.244;2022-07-29T03:15:11;99321.94;;;32.89;30.19
9343;BME280;4710;51.382;7.244;2022-07-29T03:17:52;99315.42;;;32.74;30.39
9343;BME280;4710;51.382;7.244;2022-07-29T03:20:32;99311.72;;;32.53;30.71
9343;BME280;4710;51.382;7.244;2022-07-29T03:23:09;99323.73;;;32.12;31.29
9343;BME280;4710;51.382;7.244;2022-07-29T03:25:46;99323.25;;;32.20;31.53
9343;BME280;4710;51.382;7.244;2022-07-29T03:28:30;99315.98;;;32.48;31.23
9343;BME280;4710;51.382;7.244;2022-07-29T03:31:07;99318.28;;;32.45;31.17
9343;BME280;4710;51.382;7.244;2022-07-29T03:33:44;99320.31;;;32.64;31.01
9343;BME280;4710;51.382;7.244;2022-07-29T03:36:25;99317.66;;;32.59;30.95
9343;BME280;4710;51.382;7.244;2022-07-29T03:39:02;99321.00;;;31.75;31.72
9343;BME280;4710;51.382;7.244;2022-07-29T03:41:40;99322.73;;;30.89;33.12
9343;BME280;4710;51.382;7.244;2022-07-29T03:44:23;99336.61;;;30.18;35.59
9343;BME280;4710;51.382;7.244;2022-07-29T03:47:04;99348.13;;;29.30;37.14
9343;BME280;4710;51.382;7.244;2022-07-29T03:49:45;99352.86;;;29.48;36.36
9343;BME280;4710;51.382;7.244;2022-07-29T03:52:32;99360.47;;;28.96;36.51
9343;BME280;4710;51.382;7.244;2022-07-29T03:55:15;99352.58;;;29.80;35.25
9343;BME280;4710;51.382;7.244;2022-07-29T03:57:56;99356.74;;;29.82;35.23
9343;BME280;4710;51.382;7.244;2022-07-29T04:00:36;99376.30;;;28.54;36.97
9343;BME280;4710;51.382;7.244;2022-07-29T04:03:20;99382.63;;;27.44;39.39
9343;BME280;4710;51.382;7.244;2022-07-29T04:06:02;99375.16;;;29.04;37.33
9343;BME280;4710;51.382;7.244;2022-07-29T04:08:41;99386.69;;;27.98;38.18
9343;BME280;4710;51.382;7.244;2022-07-29T04:11:19;99381.25;;;28.63;37.54
9343;BME280;4710;51.382;7.244;2022-07-29T04:13:57;99401.29;;;28.41;38.00
9343;BME280;4710;51.382;7.244;2022-07-29T04:16:40;99405.23;;;28.13;38.14
9343;BME280;4710;51.382;7.244;2022-07-29T04:19:23;99394.00;;;27.95;38.38
9343;BME280;4710;51.382;7.244;2022-07-29T04:22:00;99411.17;;;27.93;38.21
9343;BME280;4710;51.382;7.244;2022-07-29T04:24:41;99415.61;;;27.65;38.35
9343;BME280;4710;51.382;7.244;2022-07-29T04:27:21;99408.84;;;27.20;40.70
9343;BME280;4710;51.382;7.244;2022-07-29T04:29:59;99411.34;;;27.77;39.62
9343;BME280;4710;51.382;7.244;2022-07-29T04:32:36;99415.06;;;28.46;38.98
9343;BME280;4710;51.382;7.244;2022-07-29T04:35:13;99409.38;;;28.61;38.06
9343;BME280;4710;51.382;7.244;2022-07-29T04:37:51;99411.35;;;27.89;39.38
9343;BME280;4710;51.382;7.244;2022-07-29T04:40:35;99411.45;;;26.94;40.84
9343;BME280;4710;51.382;7.244;2022-07-29T04:43:26;99426.10;;;28.28;39.58
9343;BME280;4710;51.382;7.244;2022-07-29T04:46:10;99432.89;;;28.60;38.97
9343;BME280;4710;51.382;7.244;2022-07-29T04:48:53;99432.66;;;28.69;38.00
9343;BME280;4710;51.382;7.244;2022-07-29T04:51:33;99427.42;;;29.38;37.49
9343;BME280;4710;51.382;7.244;2022-07-29T04:54:10;99430.98;;;28.43;38.48
9343;BME280;4710;51.382;7.244;2022-07-29T04:56:54;99411.20;;;28.93;37.73
9343;BME280;4710;51.382;7.244;2022-07-29T05:01:46;99414.20;;;27.67;39.96
9343;BME280;4710;51.382;7.244;2022-07-29T05:04:23;99410.17;;;27.49;39.73
9343;BME280;4710;51.382;7.244;2022-07-29T05:07:00;99419.37;;;27.92;38.54
9343;BME280;4710;51.382;7.244;2022-07-29T05:09:38;99418.53;;;27.51;39.50
9343;BME280;4710;51.382;7.244;2022-07-29T05:12:15;99425.06;;;27.71;39.63
9343;BME280;4710;51.382;7.244;2022-07-29T05:14:56;99421.64;;;28.13;38.93
9343;BME280;4710;51.382;7.244;2022-07-29T05:17:33;99424.05;;;27.95;38.57
9343;BME280;4710;51.382;7.244;2022-07-29T05:20:11;99411.11;;;28.59;38.15
9343;BME280;4710;51.382;7.244;2022-07-29T05:22:55;99402.83;;;29.41;36.72
9343;BME280;4710;51.382;7.244;2022-07-29T05:25:35;99409.58;;;30.11;35.49
9343;BME280;4710;51.382;7.244;2022-07-29T05:28:21;99405.16;;;30.18;35.38
9343;BME280;4710;51.382;7.244;2022-07-29T05:30:58;99408.12;;;29.39;37.03
9343;BME280;4710;51.382;7.244;2022-07-29T05:33:36;99395.38;;;30.33;35.28
9343;BME280;4710;51.382;7.244;2022-07-29T05:36:13;99398.67;;;29.75;35.91
9343;BME280;4710;51.382;7.244;2022-07-29T05:38:50;99408.42;;;30.53;34.95
9343;BME280;4710;51.382;7.244;2022-07-29T05:41:32;99415.08;;;30.87;34.36
9343;BME280;4710;51.382;7.244;2022-07-29T05:44:12;99411.48;;;30.97;34.24
9343;BME280;4710;51.382;7.244;2022-07-29T05:47:07;99411.36;;;30.57;35.25
9343;BME280;4710;51.382;7.244;2022-07-29T05:49:46;99408.25;;;31.00;34.39
9343;BME280;4710;51.382;7.244;2022-07-29T05:52:23;99413.32;;;31.00;34.49
9343;BME280;4710;51.382;7.244;2022-07-29T05:55:04;99424.27;;;30.97;34.68
9343;BME280;4710;51.382;7.244;2022-07-29T05:57:41;99420.69;;;31.18;34.64
9343;BME280;4710;51.382;7.244;2022-07-29T06:00:22;99426.25;;;31.63;34.08
9343;BME280;4710;51.382;7.244;2022-07-29T06:03:00;99427.39;;;31.38;34.42
9343;BME280;4710;51.382;7.244;2022-07-29T06:05:40;99422.66;;;31.01;35.06
9343;BME280;4710;51.382;7.244;2022-07-29T06:08:20;99423.05;;;31.57;34.92
9343;BME280;4710;51.382;7.244;2022-07-29T06:10:58;99429.75;;;31.40;34.82
9343;BME280;4710;51.382;7.244;2022-07-29T06:13:35;99428.49;;;31.26;35.69
9343;BME280;4710;51.382;7.244;2022-07-29T06:16:21;99424.16;;;31.00;36.07
9343;BME280;4710;51.382;7.244;2022-07-29T06:19:00;99421.02;;;31.22;36.09
9343;BME280;4710;51.382;7.244;2022-07-29T06:21:43;99425.85;;;31.12;36.60
9343;BME280;4710;51.382;7.244;2022-07-29T06:24:26;99427.19;;;31.44;36.05
9343;BME280;4710;51.382;7.244;2022-07-29T06:27:10;99430.70;;;31.40;36.14
9343;BME280;4710;51.382;7.244;2022-07-29T06:29:50;99437.13;;;31.13;36.56
9343;BME280;4710;51.382;7.244;2022-07-29T06:32:28;99437.92;;;31.22;36.58
9343;BME280;4710;51.382;7.244;2022-07-29T06:35:09;99438.95;;;31.29;36.33
9343;BME280;4710;51.382;7.244;2022-07-29T06:37:46;99438.19;;;31.34;36.20
9343;BME280;4710;51.382;7.244;2022-07-29T06:40:23;99434.34;;;31.45;36.35
9343;BME280;4710;51.382;7.244;2022-07-29T06:43:09;99431.55;;;31.43;36.03
9343;BME280;4710;51.382;7.244;2022-07-29T06:45:49;99435.64;;;31.27;36.20
9343;BME280;4710;51.382;7.244;2022-07-29T06:48:27;99427.65;;;31.12;36.48
9343;BME280;4710;51.382;7.244;2022-07-29T06:51:07;99428.59;;;31.23;36.70
9343;BME280;4710;51.382;7.244;2022-07-29T06:53:48;99437.59;;;31.18;36.53
9343;BME280;4710;51.382;7.244;2022-07-29T06:56:25;99436.61;;;30.97;37.02
9343;BME280;4710;51.382;7.244;2022-07-29T06:59:03;99435.20;;;31.05;36.94
9343;BME280;4710;51.382;7.244;2022-07-29T07:01:43;99442.96;;;31.11;36.92
9343;BME280;4710;51.382;7.244;2022-07-29T07:04:24;99447.73;;;31.29;36.88
9343;BME280;4710;51.382;7.244;2022-07-29T07:07:04;99447.59;;;31.08;37.47
9343;BME280;4710;51.382;7.244;2022-07-29T07:09:45;99439.45;;;30.83;38.17
9343;BME280;4710;51.382;7.244;2022-07-29T07:12:25;99446.91;;;30.50;38.62
9343;BME280;4710;51.382;7.244;2022-07-29T07:15:02;99450.38;;;30.59;38.76
9343;BME280;4710;51.382;7.244;2022-07-29T07:17:40;99460.80;;;31.30;37.70
9343;BME280;4710;51.382;7.244;2022-07-29T07:20:20;99462.13;;;31.64;37.13
9343;BME280;4710;51.382;7.244;2022-07-29T07:23:01;99457.66;;;31.67;36.63
9343;BME280;4710;51.382;7.244;2022-07-29T07:25:41;99461.43;;;31.74;36.32
9343;BME280;4710;51.382;7.244;2022-07-29T07:28:22;99460.23;;;31.78;36.11
9343;BME280;4710;51.382;7.244;2022-07-29T07:30:59;99461.68;;;31.83;35.85
9343;BME280;4710;51.382;7.244;2022-07-29T07:33:41;99456.31;;;32.14;35.31
9343;BME280;4710;51.382;7.244;2022-07-29T07:36:21;99461.53;;;32.15;35.11
9343;BME280;4710;51.382;7.244;2022-07-29T07:39:01;99458.77;;;32.26;35.19
9343;BME280;4710;51.382;7.244;2022-07-29T07:41:42;99457.52;;;32.12;35.46
9343;BME280;4710;51.382;7.244;2022-07-29T07:44:23;99456.45;;;32.16;35.58
9343;BME280;4710;51.382;7.244;2022-07-29T07:47:03;99461.09;;;32.23;35.77
9343;BME280;4710;51.382;7.244;2022-07-29T07:49:44;99458.34;;;32.23;35.50
9343;BME280;4710;51.382;7.244;2022-07-29T07:52:27;99458.63;;;32.27;35.61
9343;BME280;4710;51.382;7.244;2022-07-29T07:55:10;99453.98;;;32.17;35.52
9343;BME280;4710;51.382;7.244;2022-07-29T07:57:50;99453.83;;;32.28;35.67
9343;BME280;4710;51.382;7.244;2022-07-29T08:00:28;99460.91;;;32.03;35.77
9343;BME280;4710;51.382;7.244;2022-07-29T08:03:06;99457.34;;;32.05;36.19
9343;BME280;4710;51.382;7.244;2022-07-29T08:05:46;99459.06;;;32.16;35.85
9343;BME280;4710;51.382;7.244;2022-07-29T08:08:27;99458.25;;;32.16;35.76
9343;BME280;4710;51.382;7.244;2022-07-29T08:11:07;99468.80;;;32.11;36.01
9343;BME280;4710;51.382;7.244;2022-07-29T08:13:45;99459.44;;;32.22;35.80
9343;BME280;4710;51.382;7.244;2022-07-29T08:16:25;99462.88;;;32.39;35.73
9343;BME280;4710;51.382;7.244;2022-07-29T08:19:02;99467.05;;;32.47;35.78
9343;BME280;4710;51.382;7.244;2022-07-29T08:21:40;99460.41;;;32.84;35.02
9343;BME280;4710;51.382;7.244;2022-07-29T08:24:21;99469.22;;;33.12;34.46
9343;BME280;4710;51.382;7.244;2022-07-29T08:27:10;99469.20;;;33.09;34.36
9343;BME280;4710;51.382;7.244;2022-07-29T08:29:48;99474.18;;;33.10;34.26
9343;BME280;4710;51.382;7.244;2022-07-29T08:32:25;99471.95;;;32.76;34.77
9343;BME280;4710;51.382;7.244;2022-07-29T08:35:06;99470.72;;;32.62;34.60
9343;BME280;4710;51.382;7.244;2022-07-29T08:37:44;99466.28;;;32.72;34.41
9343;BME280;4710;51.382;7.244;2022-07-29T08:40:24;99468.84;;;32.86;34.40
9343;BME280;4710;51.382;7.244;2022-07-29T08:43:06;99464.08;;;32.74;34.56
9343;BME280;4710;51.382;7.244;2022-07-29T08:45:47;99466.58;;;31.09;37.29
9343;BME280;4710;51.382;7.244;2022-07-29T08:48:27;99470.61;;;32.86;34.96
9343;BME280;4710;51.382;7.244;2022-07-29T08:51:04;99469.23;;;33.17;34.58
9343;BME280;4710;51.382;7.244;2022-07-29T08:53:45;99465.38;;;33.18;34.86
9343;BME280;4710;51.382;7.244;2022-07-29T08:56:25;99468.45;;;32.34;37.27
9343;BME280;4710;51.382;7.244;2022-07-29T08:59:08;99476.42;;;32.53;36.55
9343;BME280;4710;51.382;7.244;2022-07-29T09:01:56;99474.70;;;32.79;36.24
9343;BME280;4710;51.382;7.244;2022-07-29T09:04:39;99476.73;;;32.38;36.91
9343;BME280;4710;51.382;7.244;2022-07-29T09:07:17;99476.67;;;32.86;35.58
9343;BME280;4710;51.382;7.244;2022-07-29T09:09:57;99482.42;;;31.45;36.54
9343;BME280;4710;51.382;7.244;2022-07-29T09:12:40;99480.81;;;31.73;36.94
9343;BME280;4710;51.382;7.244;2022-07-29T09:15:23;99484.13;;;32.51;35.85
9343;BME280;4710;51.382;7.244;2022-07-29T09:18:08;99473.32;;;33.25;35.09
9343;BME280;4710;51.382;7.244;2022-07-29T09:20:50;99471.83;;;33.33;34.84
9343;BME280;4710;51.382;7.244;2022-07-29T09:23:28;99472.74;;;31.75;36.30
9343;BME280;4710;51.382;7.244;2022-07-29T09:26:05;99470.53;;;32.35;36.11
9343;BME280;4710;51.382;7.244;2022-07-29T09:28:49;99471.68;;;32.59;35.70
9343;BME280;4710;51.382;7.244;2022-07-29T09:31:33;99466.41;;;32.74;35.17
9343;BME280;4710;51.382;7.244;2022-07-29T09:34:28;99458.62;;;33.07;34.80
9343;BME280;4710;51.382;7.244;2022-07-29T09:37:26;99461.11;;;32.85;34.87
9343;BME280;4710;51.382;7.244;2022-07-29T09:40:12;99461.18;;;33.24;34.31
9343;BME280;4710;51.382;7.244;2022-07-29T09:42:49;99452.80;;;33.32;34.24
9343;BME280;4710;51.382;7.244;2022-07-29T09:45:32;99455.88;;;32.45;35.47
9343;BME280;4710;51.382;7.244;2022-07-29T09:48:15;99451.08;;;32.88;35.12
9343;BME280;4710;51.382;7.244;2022-07-29T09:50:54;99454.84;;;33.00;35.00
9343;BME280;4710;51.382;7.244;2022-07-29T09:53:34;99448.81;;;32.80;35.48
9343;BME280;4710;51.382;7.244;2022-07-29T09:56:11;99442.20;;;33.37;34.81
9343;BME280;4710;51.382;7.244;2022-07-29T09:59:10;99443.47;;;32.63;36.27
9343;BME280;4710;51.382;7.244;2022-07-29T10:01:55;99438.20;;;33.31;35.19
9343;BME280;4710;51.382;7.244;2022-07-29T10:04:39;99444.02;;;33.40;34.90
9343;BME280;4710;51.382;7.244;2022-07-29T10:07:19;99440.07;;;33.59;34.49
9343;BME280;4710;51.382;7.244;2022-07-29T10:09:56;99447.71;;;33.06;35.37
9343;BME280;4710;51.382;7.244;2022-07-29T10:12:49;99446.14;;;31.99;35.94
9343;BME280;4710;51.382;7.244;2022-07-29T10:15:30;99449.70;;;32.28;35.84
9343;BME280;4710;51.382;7.244;2022-07-29T10:18:13;99453.95;;;31.67;36.84
9343;BME280;4710;51.382;7.244;2022-07-29T10:20:50;99444.83;;;32.06;36.03
9343;BME280;4710;51.382;7.244;2022-07-29T10:23:36;99458.41;;;32.98;35.14
9343;BME280;4710;51.382;7.244;2022-07-29T10:26:19;99453.14;;;32.91;35.59
9343;BME280;4710;51.382;7.244;2022-07-29T10:29:00;99456.84;;;32.86;35.42
9343;BME280;4710;51.382;7.244;2022-07-29T10:31:45;99451.63;;;33.63;34.39
9343;BME280;4710;51.382;7.244;2022-07-29T10:34:30;99462.11;;;32.31;36.10
9343;BME280;4710;51.382;7.244;2022-07-29T10:37:19;99456.30;;;33.53;34.62
9343;BME280;4710;51.382;7.244;2022-07-29T10:40:21;99460.66;;;33.80;34.34
9343;BME280;4710;51.382;7.244;2022-07-29T10:43:23;99452.27;;;34.03;33.89
9343;BME280;4710;51.382;7.244;2022-07-29T10:46:02;99463.02;;;33.89;34.01
9343;BME280;4710;51.382;7.244;2022-07-29T10:54:42;99460.00;;;34.08;33.90
9343;BME280;4710;51.382;7.244;2022-07-29T10:57:28;99450.51;;;34.20;33.57
9343;BME280;4710;51.382;7.244;2022-07-29T11:00:26;99452.27;;;34.18;33.59
9343;BME280;4710;51.382;7.244;2022-07-29T11:03:06;99451.45;;;34.07;33.82
9343;BME280;4710;51.382;7.244;2022-07-29T11:05:51;99454.20;;;33.87;33.96
9343;BME280;4710;51.382;7.244;2022-07-29T11:08:31;99448.11;;;33.80;33.66
9343;BME280;4710;51.382;7.244;2022-07-29T11:14:14;99445.66;;;33.99;33.88
9343;BME280;4710;51.382;7.244;2022-07-29T11:17:01;99456.27;;;33.94;33.77
9343;BME280;4710;51.382;7.244;2022-07-29T11:19:42;99447.02;;;33.96;33.92
9343;BME280;4710;51.382;7.244;2022-07-29T11:22:33;99453.58;;;33.68;34.28
9343;BME280;4710;51.382;7.244;2022-07-29T11:25:15;99462.31;;;32.08;37.00
9343;BME280;4710;51.382;7.244;2022-07-29T11:28:08;99451.28;;;33.25;35.50
9343;BME280;4710;51.382;7.244;2022-07-29T11:30:47;99459.87;;;33.48;34.88
9343;BME280;4710;51.382;7.244;2022-07-29T11:33:30;99454.72;;;33.72;34.64
9343;BME280;4710;51.382;7.244;2022-07-29T11:36:11;99452.93;;;33.69;35.15
9343;BME280;4710;51.382;7.244;2022-07-29T11:38:50;99452.86;;;33.49;35.57
9343;BME280;4710;51.382;7.244;2022-07-29T11:41:37;99459.63;;;33.62;34.75
9343;BME280;4710;51.382;7.244;2022-07-29T11:47:00;99446.55;;;33.59;35.03
9343;BME280;4710;51.382;7.244;2022-07-29T11:49:46;99448.45;;;33.53;34.92
9343;BME280;4710;51.382;7.244;2022-07-29T11:52:35;99449.38;;;33.41;34.60
9343;BME280;4710;51.382;7.244;2022-07-29T11:55:16;99454.73;;;33.74;34.85
9343;BME280;4710;51.382;7.244;2022-07-29T11:57:57;99463.67;;;33.71;34.50
9343;BME280;4710;51.382;7.244;2022-07-29T12:00:39;99448.81;;;33.36;34.69
9343;BME280;4710;51.382;7.244;2022-07-29T12:03:27;99442.38;;;33.44;35.00
9343;BME280;4710;51.382;7.244;2022-07-29T12:06:15;99442.23;;;34.20;34.17
9343;BME280;4710;51.382;7.244;2022-07-29T12:08:52;99445.21;;;33.89;34.21
9343;BME280;4710;51.382;7.244;2022-07-29T12:11:33;99447.46;;;34.32;33.65
9343;BME280;4710;51.382;7.244;2022-07-29T12:14:26;99460.42;;;33.12;34.83
9343;BME280;4710;51.382;7.244;2022-07-29T12:17:08;99459.61;;;33.55;34.24
9343;BME280;4710;51.382;7.244;2022-07-29T12:19:48;99448.29;;;34.20;34.05
9343;BME280;4710;51.382;7.244;2022-07-29T12:22:30;99450.34;;;34.03;34.02
9343;BME280;4710;51.382;7.244;2022-07-29T12:25:11;99452.55;;;34.39;33.74
9343;BME280;4710;51.382;7.244;2022-07-29T12:27:58;99462.17;;;33.71;34.83
9343;BME280;4710;51.382;7.244;2022-07-29T12:30:40;99459.71;;;34.12;34.28
9343;BME280;4710;51.382;7.244;2022-07-29T12:33:22;99457.95;;;34.20;34.47
9343;BME280;4710;51.382;7.244;2022-07-29T12:36:01;99462.07;;;34.32;34.03
9343;BME280;4710;51.382;7.244;2022-07-29T12:38:42;99463.59;;;34.24;33.94
9343;BME280;4710;51.382;7.244;2022-07-29T12:41:19;99468.88;;;31.89;37.55
9343;BME280;4710;51.382;7.244;2022-07-29T12:43:57;99468.95;;;32.83;36.34
9343;BME280;4710;51.382;7.244;2022-07-29T12:46:38;99460.28;;;34.19;34.56
9343;BME280;4710;51.382;7.244;2022-07-29T12:49:21;99456.69;;;34.39;34.85
9343;BME280;4710;51.382;7.244;2022-07-29T12:52:03;99455.98;;;34.10;35.26
9343;BME280;4710;51.382;7.244;2022-07-29T12:54:47;99453.53;;;34.19;35.04
9343;BME280;4710;51.382;7.244;2022-07-29T12:57:24;99470.89;;;33.18;35.88
9343;BME280;4710;51.382;7.244;2022-07-29T13:00:07;99457.09;;;34.09;35.68
9343;BME280;4710;51.382;7.244;2022-07-29T13:02:53;99450.61;;;34.14;35.25
9343;BME280;4710;51.382;7.244;2022-07-29T13:05:42;99450.44;;;34.72;35.00
9343;BME280;4710;51.382;7.244;2022-07-29T13:08:22;99450.45;;;34.60;33.73
9343;BME280;4710;51.382;7.244;2022-07-29T13:10:59;99466.33;;;33.79;35.85
9343;BME280;4710;51.382;7.244;2022-07-29T13:13:50;99459.69;;;34.75;34.00
9343;BME280;4710;51.382;7.244;2022-07-29T13:16:30;99462.91;;;34.40;34.24
9343;BME280;4710;51.382;7.244;2022-07-29T13:19:09;99463.34;;;34.97;33.04
9343;BME280;4710;51.382;7.244;2022-07-29T13:21:55;99450.48;;;34.38;33.66
9343;BME280;4710;51.382;7.244;2022-07-29T13:24:45;99455.03;;;34.68;33.58
9343;BME280;4710;51.382;7.244;2022-07-29T13:27:22;99461.25;;;35.06;32.45
9343;BME280;4710;51.382;7.244;2022-07-29T13:30:06;99455.58;;;34.47;33.94
9343;BME280;4710;51.382;7.244;2022-07-29T13:32:46;99460.58;;;34.94;33.34
9343;BME280;4710;51.382;7.244;2022-07-29T13:35:28;99462.20;;;34.04;34.52
9343;BME280;4710;51.382;7.244;2022-07-29T13:38:08;99463.03;;;35.08;33.21
9343;BME280;4710;51.382;7.244;2022-07-29T13:40:52;99465.62;;;34.82;33.13
9343;BME280;4710;51.382;7.244;2022-07-29T13:43:29;99460.69;;;35.19;32.21
9343;BME280;4710;51.382;7.244;2022-07-29T13:46:11;99462.70;;;33.28;33.66
9343;BME280;4710;51.382;7.244;2022-07-29T13:48:48;99454.81;;;33.69;34.39
9343;BME280;4710;51.382;7.244;2022-07-29T13:51:25;99449.02;;;34.87;32.83
9343;BME280;4710;51.382;7.244;2022-07-29T13:54:03;99441.73;;;35.48;31.91
9343;BME280;4710;51.382;7.244;2022-07-29T13:56:40;99458.39;;;35.31;32.18
9343;BME280;4710;51.382;7.244;2022-07-29T13:59:17;99449.73;;;34.81;32.43
9343;BME280;4710;51.382;7.244;2022-07-29T14:02:00;99448.15;;;35.34;32.13
9343;BME280;4710;51.382;7.244;2022-07-29T14:04:38;99449.30;;;35.52;31.77
9343;BME280;4710;51.382;7.244;2022-07-29T14:07:18;99447.25;;;35.19;31.54
9343;BME280;4710;51.382;7.244;2022-07-29T14:10:02;99445.09;;;35.88;31.47
9343;BME280;4710;51.382;7.244;2022-07-29T14:12:46;99437.70;;;35.50;31.81
9343;BME280;4710;51.382;7.244;2022-07-29T14:15:26;99444.45;;;34.18;32.88
9343;BME280;4710;51.382;7.244;2022-07-29T14:18:04;99445.64;;;34.04;33.21
9343;BME280;4710;51.382;7.244;2022-07-29T14:20:41;99448.37;;;35.23;31.65
9343;BME280;4710;51.382;7.244;2022-07-29T14:23:40;99448.53;;;35.39;32.00
9343;BME280;4710;51.382;7.244;2022-07-29T14:26:24;99449.88;;;35.73;31.11
9343;BME280;4710;51.382;7.244;2022-07-29T14:29:04;99453.41;;;35.33;32.12
9343;BME280;4710;51.382;7.244;2022-07-29T14:31:42;99449.09;;;35.07;31.85
9343;BME280;4710;51.382;7.244;2022-07-29T14:34:24;99438.54;;;35.50;31.80
9343;BME280;4710;51.382;7.244;2022-07-29T14:37:01;99441.27;;;35.58;31.51
9343;BME280;4710;51.382;7.244;2022-07-29T14:39:42;99445.48;;;35.11;32.40
9343;BME280;4710;51.382;7.244;2022-07-29T14:42:19;99442.45;;;34.53;33.30
9343;BME280;4710;51.382;7.244;2022-07-29T14:44:56;99437.64;;;34.12;33.34
9343;BME280;4710;51.382;7.244;2022-07-29T14:47:37;99444.61;;;35.26;32.32
9343;BME280;4710;51.382;7.244;2022-07-29T14:50:14;99438.02;;;34.75;32.45
9343;BME280;4710;51.382;7.244;2022-07-29T14:52:51;99434.94;;;35.74;31.56
9343;BME280;4710;51.382;7.244;2022-07-29T14:55:31;99434.17;;;35.37;31.97
9343;BME280;4710;51.382;7.244;2022-07-29T14:58:10;99439.34;;;35.80;31.68